Terminal Aerodrome Forecast
Issued by NWS

Home | Current Version | Previous Version | Graphics & Text | Print | Product List | Glossary On
Versions: 1 2 3 4 5 6 7 8 9 10 11 12 13
000
FTUS43 KTOP 011138
TAFFOE
TAF
KFOE 011138Z 0112/0212 12011KT P6SM VCSH SCT008 BKN120
      TEMPO 0112/0114 BKN008
     FM011400 16011KT P6SM BKN120
     FM012200 16008KT P6SM SCT070
     FM020200 01006KT P6SM BKN050=

USA.gov is the U.S. government's official web portal to all federal, state and local government web resources and services.